createdAt,value
2024-01-19T00:00:39.375Z,31.08
2024-01-19T00:03:06.098Z,30.84
2024-01-19T00:05:32.894Z,30.56
2024-01-19T00:07:59.762Z,31.15
2024-01-19T00:10:31.941Z,31.06
2024-01-19T00:12:58.565Z,30.85
2024-01-19T00:15:36.682Z,30.91
2024-01-19T00:18:06.839Z,30.78
2024-01-19T00:20:33.567Z,30.52
2024-01-19T00:23:00.615Z,30.72
2024-01-19T00:25:27.254Z,31.19
2024-01-19T00:27:53.840Z,31.00
2024-01-19T00:30:20.381Z,30.60
2024-01-19T00:32:47.068Z,31.17
2024-01-19T00:35:15.404Z,30.67
2024-01-19T00:37:43.392Z,31.09
2024-01-19T00:40:13.021Z,30.48
2024-01-19T00:42:40.919Z,30.96
2024-01-19T00:45:08.725Z,30.29
2024-01-19T00:47:36.166Z,30.22
2024-01-19T00:50:04.374Z,30.89
2024-01-19T00:52:30.930Z,30.42
2024-01-19T00:54:57.748Z,30.96
2024-01-19T00:57:24.395Z,30.46
2024-01-19T00:59:51.236Z,30.71
2024-01-19T01:02:17.909Z,30.97
2024-01-19T01:04:44.549Z,30.83
2024-01-19T01:07:14.088Z,30.75
2024-01-19T01:09:40.712Z,30.72
2024-01-19T01:12:07.307Z,30.73
2024-01-19T01:14:33.952Z,30.73
2024-01-19T01:17:01.123Z,31.25
2024-01-19T01:19:27.890Z,30.30
2024-01-19T01:21:54.482Z,30.15
2024-01-19T01:24:23.272Z,30.37
2024-01-19T01:26:49.953Z,30.53
2024-01-19T01:29:16.713Z,30.64
2024-01-19T01:31:43.363Z,30.83
2024-01-19T01:34:10.144Z,30.93
2024-01-19T01:36:37.196Z,30.92
2024-01-19T01:39:03.837Z,31.23
2024-01-19T01:41:30.573Z,30.84
2024-01-19T01:43:57.409Z,31.01
2024-01-19T01:46:24.058Z,30.81
2024-01-19T01:48:50.822Z,31.10
2024-01-19T01:51:17.533Z,30.92
2024-01-19T01:53:44.322Z,30.62
2024-01-19T01:56:10.940Z,30.91
2024-01-19T01:58:37.563Z,30.60
2024-01-19T02:01:04.409Z,31.38
2024-01-19T02:03:31.100Z,30.87
2024-01-19T02:05:57.857Z,30.87
2024-01-19T02:08:24.673Z,30.61
2024-01-19T02:10:51.418Z,30.69
2024-01-19T02:13:18.019Z,30.82
2024-01-19T02:15:44.910Z,30.80
2024-01-19T02:18:11.690Z,31.01
2024-01-19T02:20:38.410Z,30.98
2024-01-19T02:23:05.033Z,31.20
2024-01-19T02:25:31.843Z,31.08
2024-01-19T02:27:58.398Z,30.79
2024-01-19T02:30:24.973Z,30.65
2024-01-19T02:32:52.024Z,31.29
2024-01-19T02:35:18.761Z,30.82
2024-01-19T02:37:45.372Z,31.50
2024-01-19T02:40:12.185Z,31.00
2024-01-19T02:42:38.804Z,30.88
2024-01-19T02:45:05.882Z,30.81
2024-01-19T02:47:34.935Z,30.80
2024-01-19T02:50:02.369Z,30.60
2024-01-19T02:52:28.997Z,30.64
2024-01-19T02:54:55.732Z,30.95
2024-01-19T02:57:22.344Z,31.10
2024-01-19T02:59:49.002Z,30.88
2024-01-19T03:02:15.719Z,30.27
2024-01-19T03:04:42.456Z,30.48
2024-01-19T03:07:09.083Z,30.80
2024-01-19T03:09:35.715Z,30.81
2024-01-19T03:12:02.537Z,30.80
2024-01-19T03:14:29.227Z,30.72
2024-01-19T03:16:55.810Z,30.72
2024-01-19T03:19:22.441Z,31.02
2024-01-19T03:21:49.175Z,30.61
2024-01-19T03:24:15.822Z,31.01
2024-01-19T03:26:43.504Z,30.62
2024-01-19T03:29:10.307Z,31.17
2024-01-19T03:31:36.947Z,30.85
2024-01-19T03:34:03.586Z,31.24
2024-01-19T03:36:30.205Z,30.61
2024-01-19T03:38:56.890Z,30.27
2024-01-19T03:41:26.089Z,31.11
2024-01-19T03:43:52.815Z,31.02
2024-01-19T03:46:19.660Z,31.73
2024-01-19T03:48:46.575Z,31.39
2024-01-19T03:51:13.444Z,30.86
2024-01-19T03:53:44.058Z,30.98
2024-01-19T03:56:11.582Z,30.81
2024-01-19T03:58:38.267Z,31.29
2024-01-19T04:01:05.743Z,31.30
2024-01-19T04:03:35.476Z,31.19
2024-01-19T04:06:02.478Z,30.61
2024-01-19T04:08:29.208Z,29.68
2024-01-19T04:10:55.802Z,29.46
2024-01-19T04:13:22.423Z,29.98
2024-01-19T04:15:48.992Z,29.76
2024-01-19T04:18:15.748Z,29.62
2024-01-19T04:20:42.470Z,29.47
2024-01-19T04:23:09.098Z,30.01
2024-01-19T04:25:35.688Z,30.32
2024-01-19T04:28:02.265Z,30.29
2024-01-19T04:30:28.860Z,29.65
2024-01-19T04:32:55.729Z,29.83
2024-01-19T04:35:22.354Z,29.60
2024-01-19T04:37:48.990Z,30.10
2024-01-19T04:40:15.678Z,30.21
2024-01-19T04:42:42.225Z,29.90
2024-01-19T04:45:08.992Z,30.05
2024-01-19T04:47:35.691Z,29.98
2024-01-19T04:50:02.450Z,30.01
2024-01-19T04:52:29.086Z,29.88
2024-01-19T04:54:55.737Z,30.00
2024-01-19T04:57:22.326Z,29.65
2024-01-19T04:59:48.993Z,29.92
2024-01-19T05:02:18.599Z,30.41
2024-01-19T05:04:46.168Z,30.06
2024-01-19T05:07:12.930Z,30.11
2024-01-19T05:09:40.113Z,30.14
2024-01-19T05:12:07.022Z,30.36
2024-01-19T05:14:33.654Z,30.12
2024-01-19T05:17:00.388Z,30.07
2024-01-19T05:19:27.042Z,30.43
2024-01-19T05:21:53.704Z,30.01
2024-01-19T05:24:20.349Z,29.90
2024-01-19T05:26:47.013Z,29.97
2024-01-19T05:29:13.627Z,29.85
2024-01-19T05:31:40.239Z,30.26
2024-01-19T05:34:07.009Z,28.15
2024-01-19T05:36:33.760Z,25.72
2024-01-19T05:39:00.400Z,25.42
2024-01-19T05:41:29.767Z,26.81
2024-01-19T05:43:56.331Z,27.02
2024-01-19T05:46:22.977Z,27.03
2024-01-19T05:48:49.624Z,27.46
2024-01-19T05:51:16.620Z,27.54
2024-01-19T05:53:43.934Z,27.33
2024-01-19T05:56:10.669Z,27.23
2024-01-19T05:58:37.322Z,27.33
2024-01-19T06:01:04.229Z,27.45
2024-01-19T06:03:31.108Z,27.41
2024-01-19T06:05:57.910Z,28.14
2024-01-19T06:08:24.656Z,27.75
2024-01-19T06:10:51.299Z,27.74
2024-01-19T06:13:17.945Z,27.91
2024-01-19T06:15:44.550Z,27.84
2024-01-19T06:18:11.453Z,27.79
2024-01-19T06:20:43.132Z,27.97
2024-01-19T06:23:10.461Z,27.69
2024-01-19T06:25:37.190Z,27.55
2024-01-19T06:28:04.126Z,27.86
2024-01-19T06:30:30.735Z,27.80
2024-01-19T06:32:57.408Z,28.42
2024-01-19T06:35:24.517Z,28.67
2024-01-19T06:37:51.253Z,28.90
2024-01-19T06:40:17.972Z,28.52
2024-01-19T06:42:47.720Z,28.20
2024-01-19T06:45:17.723Z,28.38
2024-01-19T06:47:45.071Z,28.21
2024-01-19T06:50:12.099Z,28.10
2024-01-19T06:52:38.720Z,28.02
2024-01-19T06:55:06.351Z,28.16
2024-01-19T06:57:33.537Z,28.12
2024-01-19T07:00:00.429Z,28.05
2024-01-19T07:02:27.681Z,28.21
2024-01-19T07:04:54.309Z,28.32
2024-01-19T07:07:21.008Z,28.42
2024-01-19T07:09:47.725Z,28.40
2024-01-19T07:12:19.121Z,28.41
2024-01-19T07:14:45.786Z,28.36
2024-01-19T07:17:16.320Z,28.45
2024-01-19T07:19:43.656Z,28.47
2024-01-19T07:22:10.543Z,28.30
2024-01-19T07:24:37.280Z,28.13
2024-01-19T07:27:05.243Z,28.46
2024-01-19T07:29:32.744Z,28.44
2024-01-19T07:31:59.527Z,28.61
2024-01-19T07:34:26.418Z,28.53
2024-01-19T07:36:53.419Z,28.37
2024-01-19T07:39:24.988Z,28.38
2024-01-19T07:41:54.840Z,28.47
2024-01-19T07:44:21.646Z,28.44
2024-01-19T07:46:49.409Z,28.24
2024-01-19T07:49:22.072Z,28.28
2024-01-19T07:51:49.798Z,28.17
2024-01-19T07:54:17.947Z,28.11
2024-01-19T07:56:44.859Z,28.37
2024-01-19T07:59:11.502Z,28.19
2024-01-19T08:01:39.131Z,28.15
2024-01-19T08:04:05.972Z,28.31
2024-01-19T08:06:32.709Z,28.26
2024-01-19T08:08:59.405Z,28.41
2024-01-19T08:11:26.174Z,28.15
2024-01-19T08:13:53.030Z,28.36
2024-01-19T08:16:19.748Z,28.47
2024-01-19T08:18:46.541Z,28.49
2024-01-19T08:21:13.392Z,28.48
2024-01-19T08:23:40.345Z,28.41
2024-01-19T08:26:07.744Z,28.52
2024-01-19T08:28:35.053Z,28.41
2024-01-19T08:31:01.775Z,28.38
2024-01-19T08:33:28.534Z,28.55
2024-01-19T08:35:55.432Z,28.74
2024-01-19T08:38:22.278Z,28.76
2024-01-19T08:40:48.992Z,28.57
2024-01-19T08:43:16.198Z,28.78
2024-01-19T08:45:43.003Z,28.66
2024-01-19T08:48:09.997Z,28.56
2024-01-19T08:50:36.934Z,28.93
2024-01-19T08:53:04.151Z,28.86
2024-01-19T08:55:31.931Z,29.06
2024-01-19T08:57:58.836Z,28.82
2024-01-19T09:00:25.624Z,28.80
2024-01-19T09:03:00.148Z,29.02
2024-01-19T09:05:31.279Z,29.27
2024-01-19T09:07:58.360Z,30.12
2024-01-19T09:10:25.983Z,29.77
2024-01-19T09:12:52.708Z,29.10
2024-01-19T09:15:19.500Z,28.96
2024-01-19T09:17:46.476Z,28.93
2024-01-19T09:20:13.402Z,29.10
2024-01-19T09:22:40.276Z,29.15
2024-01-19T09:25:07.308Z,28.69
2024-01-19T09:27:34.276Z,29.29
2024-01-19T09:30:01.169Z,29.44
2024-01-19T09:32:28.234Z,29.20
2024-01-19T09:34:55.018Z,29.34
2024-01-19T09:37:21.824Z,29.02
2024-01-19T09:39:48.535Z,29.13
2024-01-19T09:42:25.900Z,28.95
2024-01-19T09:45:06.695Z,28.92
2024-01-19T09:47:43.711Z,28.74
2024-01-19T09:50:11.611Z,28.79
2024-01-19T09:52:59.095Z,28.72
2024-01-19T09:55:27.219Z,28.98
2024-01-19T09:57:54.462Z,28.96
2024-01-19T10:00:29.606Z,28.63
2024-01-19T10:02:58.233Z,28.69
2024-01-19T10:05:26.982Z,28.92
2024-01-19T10:07:54.786Z,28.68
2024-01-19T10:10:21.791Z,28.85
2024-01-19T10:12:48.612Z,28.73
2024-01-19T10:15:20.537Z,28.75
2024-01-19T10:17:50.032Z,28.70
2024-01-19T10:20:20.089Z,29.05
2024-01-19T10:22:46.847Z,30.66
2024-01-19T10:25:14.873Z,29.37
2024-01-19T10:27:42.653Z,26.54
2024-01-19T10:30:16.727Z,24.57
2024-01-19T10:32:45.312Z,22.27
2024-01-19T10:35:24.761Z,22.17
2024-01-19T10:37:51.609Z,23.26
2024-01-19T10:40:21.363Z,23.83
2024-01-19T10:42:52.777Z,24.23
2024-01-19T10:45:23.731Z,24.44
2024-01-19T10:47:51.639Z,24.65
2024-01-19T10:50:18.725Z,24.92
2024-01-19T10:52:50.065Z,24.68
2024-01-19T10:55:26.420Z,24.84
2024-01-19T10:58:12.875Z,24.72
2024-01-19T11:00:39.771Z,25.15
2024-01-19T11:03:06.937Z,25.19
2024-01-19T11:05:34.050Z,25.30
2024-01-19T11:08:01.815Z,25.46
2024-01-19T11:10:29.352Z,25.65
2024-01-19T11:12:57.405Z,25.55
2024-01-19T11:15:35.329Z,25.63
2024-01-19T11:18:03.859Z,26.14
2024-01-19T11:20:32.793Z,25.80
2024-01-19T11:23:01.269Z,26.02
2024-01-19T11:25:52.820Z,26.20
2024-01-19T11:28:43.833Z,26.13
2024-01-19T11:31:19.369Z,26.54
2024-01-19T11:33:46.816Z,26.37
2024-01-19T11:36:39.663Z,26.46
2024-01-19T11:39:15.652Z,26.49
2024-01-19T11:41:45.094Z,26.36
2024-01-19T11:44:36.214Z,26.59
2024-01-19T11:47:02.982Z,26.71
2024-01-19T11:49:33.559Z,26.76
2024-01-19T11:52:02.755Z,27.00
2024-01-19T11:54:33.337Z,27.07
2024-01-19T11:57:26.834Z,26.87
2024-01-19T11:59:56.780Z,26.99
2024-01-19T12:02:24.093Z,26.77
2024-01-19T12:04:50.979Z,27.34
2024-01-19T12:07:18.717Z,27.22
2024-01-19T12:09:45.538Z,26.73
2024-01-19T12:12:12.228Z,27.08
2024-01-19T12:14:42.068Z,26.76
2024-01-19T12:17:08.936Z,26.83
2024-01-19T12:19:35.584Z,27.04
2024-01-19T12:22:02.263Z,26.84
2024-01-19T12:24:28.991Z,26.90
2024-01-19T12:26:56.499Z,26.74
2024-01-19T12:29:32.523Z,26.99
2024-01-19T12:32:19.416Z,26.94
2024-01-19T12:34:59.145Z,27.03
2024-01-19T12:37:27.574Z,26.96
2024-01-19T12:40:16.222Z,27.00
2024-01-19T12:42:44.156Z,26.86
2024-01-19T12:45:17.612Z,27.06
2024-01-19T12:47:44.489Z,27.13
2024-01-19T12:50:17.153Z,27.01
2024-01-19T12:52:49.640Z,27.06
2024-01-19T12:55:16.322Z,27.11
2024-01-19T12:57:50.383Z,27.05
2024-01-19T13:00:17.588Z,27.10
2024-01-19T13:02:44.513Z,27.43
2024-01-19T13:05:24.218Z,25.00
2024-01-19T13:07:53.768Z,24.25
2024-01-19T13:10:20.987Z,24.06
2024-01-19T13:12:48.107Z,23.22
2024-01-19T13:15:18.086Z,23.51
2024-01-19T13:17:45.697Z,24.17
2024-01-19T13:20:26.355Z,24.61
2024-01-19T13:22:53.302Z,24.93
2024-01-19T13:25:20.057Z,24.98
2024-01-19T13:27:46.933Z,25.11
2024-01-19T13:30:14.859Z,24.98
2024-01-19T13:32:41.554Z,25.31
2024-01-19T13:35:09.832Z,25.24
2024-01-19T13:37:37.030Z,25.20
2024-01-19T13:40:05.977Z,25.48
2024-01-19T13:42:33.690Z,25.72
2024-01-19T13:45:07.583Z,25.58
2024-01-19T13:47:34.620Z,25.60
2024-01-19T13:50:02.991Z,25.71
2024-01-19T13:52:30.304Z,25.92
2024-01-19T13:54:57.053Z,26.20
2024-01-19T13:57:23.941Z,26.08
2024-01-19T13:59:52.018Z,26.33
2024-01-19T14:02:19.290Z,26.08
2024-01-19T14:04:49.177Z,26.16
2024-01-19T14:07:18.616Z,26.41
2024-01-19T14:09:45.870Z,26.20
2024-01-19T14:12:16.084Z,26.39
2024-01-19T14:14:42.815Z,26.06
2024-01-19T14:17:11.144Z,26.45
2024-01-19T14:19:40.783Z,26.61
2024-01-19T14:22:11.546Z,26.61
2024-01-19T14:24:41.670Z,26.56
2024-01-19T14:27:09.122Z,26.61
2024-01-19T14:29:39.069Z,26.34
2024-01-19T14:32:08.169Z,26.78
2024-01-19T14:34:42.834Z,26.77
2024-01-19T14:37:14.942Z,26.75
2024-01-19T14:39:46.412Z,26.81
2024-01-19T14:42:13.486Z,26.53
2024-01-19T14:44:41.203Z,26.55
2024-01-19T14:47:08.944Z,26.61
2024-01-19T14:49:37.369Z,26.81
2024-01-19T14:52:07.937Z,26.81
2024-01-19T14:54:35.577Z,26.85
2024-01-19T14:57:02.366Z,26.99
2024-01-19T14:59:31.332Z,27.02
2024-01-19T15:01:58.443Z,27.19
2024-01-19T15:04:25.353Z,27.24
2024-01-19T15:06:52.179Z,27.40
2024-01-19T15:09:18.899Z,27.03
2024-01-19T15:11:46.577Z,27.26
2024-01-19T15:14:13.478Z,27.59
2024-01-19T15:16:40.246Z,27.16
2024-01-19T15:19:09.823Z,27.37
2024-01-19T15:21:36.488Z,27.46
2024-01-19T15:24:07.559Z,27.41
2024-01-19T15:26:34.782Z,27.51
2024-01-19T15:29:01.515Z,27.26
2024-01-19T15:31:28.252Z,27.49
2024-01-19T15:33:57.669Z,27.64
2024-01-19T15:36:24.518Z,27.51
2024-01-19T15:38:51.244Z,27.48
2024-01-19T15:41:27.323Z,27.83
2024-01-19T15:43:57.113Z,28.03
2024-01-19T15:46:24.556Z,28.18
2024-01-19T15:49:03.457Z,27.99
2024-01-19T15:51:31.644Z,27.97
2024-01-19T15:53:58.359Z,28.07
2024-01-19T15:56:35.741Z,27.91
2024-01-19T15:59:04.312Z,27.88
2024-01-19T16:01:34.048Z,28.00
2024-01-19T16:04:02.776Z,28.13
2024-01-19T16:06:31.021Z,27.79
2024-01-19T16:08:57.749Z,27.90
2024-01-19T16:11:24.372Z,27.83
2024-01-19T16:13:51.058Z,28.10
2024-01-19T16:16:18.517Z,27.84
2024-01-19T16:18:46.473Z,28.49
2024-01-19T16:21:24.991Z,27.77
2024-01-19T16:23:51.703Z,27.80
2024-01-19T16:26:19.737Z,27.63
2024-01-19T16:28:49.404Z,28.12
2024-01-19T16:31:17.208Z,28.19
2024-01-19T16:33:46.982Z,28.53
2024-01-19T16:36:19.297Z,28.33
2024-01-19T16:38:47.160Z,29.08
2024-01-19T16:41:17.705Z,29.29
2024-01-19T16:43:44.609Z,29.20
2024-01-19T16:46:17.972Z,28.78
2024-01-19T16:48:44.808Z,29.00
2024-01-19T16:51:18.091Z,29.14
2024-01-19T16:53:44.877Z,28.78
2024-01-19T16:56:12.963Z,28.69
2024-01-19T16:58:39.874Z,28.76
2024-01-19T17:01:06.654Z,28.88
2024-01-19T17:03:33.509Z,28.37
2024-01-19T17:06:00.250Z,28.96
2024-01-19T17:08:27.030Z,28.56
2024-01-19T17:10:56.773Z,28.59
2024-01-19T17:13:23.396Z,28.77
2024-01-19T17:15:50.154Z,29.15
2024-01-19T17:18:19.613Z,29.17
2024-01-19T17:20:49.287Z,28.86
2024-01-19T17:23:19.378Z,28.93
2024-01-19T17:25:47.329Z,28.89
2024-01-19T17:28:14.263Z,28.70
2024-01-19T17:30:46.505Z,29.03
2024-01-19T17:33:15.981Z,28.67
2024-01-19T17:35:42.671Z,28.67
2024-01-19T17:38:09.599Z,28.78
2024-01-19T17:40:36.504Z,28.56
2024-01-19T17:43:04.165Z,28.49
2024-01-19T17:45:30.881Z,28.79
2024-01-19T17:47:58.378Z,29.00
2024-01-19T17:50:27.874Z,28.64
2024-01-19T17:52:57.874Z,28.68
2024-01-19T17:55:27.472Z,28.83
2024-01-19T17:57:54.126Z,28.46
2024-01-19T18:00:20.817Z,28.62
2024-01-19T18:02:47.528Z,28.61
2024-01-19T18:05:15.384Z,28.89
2024-01-19T18:07:42.437Z,28.50
2024-01-19T18:10:09.750Z,28.68
2024-01-19T18:12:36.898Z,28.69
2024-01-19T18:15:05.007Z,28.69
2024-01-19T18:17:32.912Z,28.52
2024-01-19T18:20:00.295Z,28.94
2024-01-19T18:22:27.133Z,29.05
2024-01-19T18:24:54.391Z,28.80
2024-01-19T18:27:21.325Z,29.13
2024-01-19T18:29:49.664Z,29.36
2024-01-19T18:32:18.155Z,29.13
2024-01-19T18:34:45.526Z,29.00
2024-01-19T18:37:15.315Z,29.11
2024-01-19T18:39:42.026Z,29.33
2024-01-19T18:42:09.422Z,29.14
2024-01-19T18:44:36.546Z,28.99
2024-01-19T18:47:03.467Z,28.81
2024-01-19T18:49:36.185Z,28.83
2024-01-19T18:52:03.152Z,28.89
2024-01-19T18:54:30.267Z,28.91
2024-01-19T18:56:57.122Z,28.90
2024-01-19T18:59:26.706Z,28.80
2024-01-19T19:01:53.670Z,28.88
2024-01-19T19:04:20.411Z,28.72
2024-01-19T19:06:47.679Z,28.75
2024-01-19T19:09:17.281Z,28.76
2024-01-19T19:11:45.787Z,28.67
2024-01-19T19:14:12.905Z,29.32
2024-01-19T19:16:47.948Z,28.57
2024-01-19T19:19:17.385Z,29.16
2024-01-19T19:21:44.301Z,29.09
2024-01-19T19:24:14.137Z,28.70
2024-01-19T19:26:40.871Z,29.29
2024-01-19T19:29:13.411Z,28.91
2024-01-19T19:31:40.247Z,29.48
2024-01-19T19:34:07.030Z,28.91
2024-01-19T19:36:33.771Z,29.40
2024-01-19T19:39:05.002Z,29.19
2024-01-19T19:41:38.274Z,29.01
2024-01-19T19:44:05.430Z,29.12
2024-01-19T19:46:32.223Z,29.05
2024-01-19T19:48:58.999Z,28.86
2024-01-19T19:51:28.092Z,28.97
2024-01-19T19:53:54.812Z,28.80
2024-01-19T19:56:21.545Z,28.66
2024-01-19T19:58:48.322Z,29.71
2024-01-19T20:01:18.273Z,29.86
2024-01-19T20:03:45.059Z,29.55
2024-01-19T20:06:11.789Z,29.41
2024-01-19T20:08:38.658Z,29.56
2024-01-19T20:11:06.779Z,29.15
2024-01-19T20:13:37.581Z,29.29
2024-01-19T20:16:04.540Z,29.07
2024-01-19T20:18:31.537Z,29.07
2024-01-19T20:20:59.310Z,28.94
2024-01-19T20:23:26.598Z,29.17
2024-01-19T20:25:54.031Z,29.08
2024-01-19T20:28:20.807Z,29.31
2024-01-19T20:30:57.382Z,29.50
2024-01-19T20:33:28.188Z,29.65
2024-01-19T20:35:57.942Z,29.47
2024-01-19T20:38:24.841Z,29.82
2024-01-19T20:40:52.568Z,29.29
2024-01-19T20:43:22.070Z,29.33
2024-01-19T20:45:48.788Z,29.33
2024-01-19T20:48:15.960Z,29.29
2024-01-19T20:50:43.057Z,29.60
2024-01-19T20:53:09.773Z,29.25
2024-01-19T20:55:36.921Z,29.33
2024-01-19T20:58:03.763Z,29.41
2024-01-19T21:00:34.925Z,29.61
2024-01-19T21:03:02.059Z,29.46
2024-01-19T21:05:28.979Z,29.53
2024-01-19T21:07:59.365Z,29.35
2024-01-19T21:10:27.023Z,28.99
2024-01-19T21:12:54.090Z,29.51
2024-01-19T21:15:22.059Z,29.08
2024-01-19T21:17:52.351Z,29.44
2024-01-19T21:20:19.917Z,29.12
2024-01-19T21:22:47.082Z,29.00
2024-01-19T21:25:18.536Z,29.25
2024-01-19T21:27:45.356Z,28.94
2024-01-19T21:30:14.960Z,29.39
2024-01-19T21:32:41.713Z,29.45
2024-01-19T21:35:08.641Z,29.37
2024-01-19T21:37:35.637Z,29.23
2024-01-19T21:40:03.136Z,29.20
2024-01-19T21:42:29.872Z,29.43
2024-01-19T21:44:56.762Z,29.19
2024-01-19T21:47:24.082Z,29.40
2024-01-19T21:49:54.504Z,29.18
2024-01-19T21:52:24.882Z,29.10
2024-01-19T21:54:51.652Z,29.45
2024-01-19T21:57:21.234Z,29.51
2024-01-19T21:59:48.014Z,29.45
2024-01-19T22:02:15.577Z,29.22
2024-01-19T22:04:42.554Z,29.40
2024-01-19T22:07:09.500Z,29.35
2024-01-19T22:09:42.177Z,29.46
2024-01-19T22:12:09.775Z,29.08
2024-01-19T22:14:39.510Z,28.76
2024-01-19T22:17:06.228Z,28.74
2024-01-19T22:19:32.973Z,29.17
2024-01-19T22:22:02.170Z,28.98
2024-01-19T22:24:28.846Z,29.02
2024-01-19T22:26:58.289Z,29.14
2024-01-19T22:29:25.120Z,28.98
2024-01-19T22:31:51.902Z,29.34
2024-01-19T22:34:22.098Z,29.09
2024-01-19T22:36:50.337Z,29.00
2024-01-19T22:39:17.702Z,28.76
2024-01-19T22:41:44.589Z,29.05
2024-01-19T22:44:11.590Z,28.97
2024-01-19T22:46:41.559Z,28.78
2024-01-19T22:49:08.210Z,28.68
2024-01-19T22:51:34.996Z,28.81
2024-01-19T22:54:01.747Z,28.87
2024-01-19T22:56:28.548Z,28.91
2024-01-19T22:58:55.813Z,29.42
2024-01-19T23:01:24.461Z,28.93
2024-01-19T23:03:51.190Z,28.86
2024-01-19T23:06:18.073Z,28.56
2024-01-19T23:08:44.740Z,28.68
2024-01-19T23:11:11.585Z,28.70
2024-01-19T23:13:38.303Z,28.83
2024-01-19T23:16:05.611Z,28.83
2024-01-19T23:18:35.294Z,28.66
2024-01-19T23:21:01.992Z,28.67
2024-01-19T23:23:30.020Z,28.78
2024-01-19T23:25:56.772Z,28.85
2024-01-19T23:28:23.488Z,28.79
2024-01-19T23:30:50.270Z,28.83
2024-01-19T23:33:17.717Z,28.93
2024-01-19T23:35:44.785Z,28.84
2024-01-19T23:38:14.833Z,28.54
2024-01-19T23:40:41.744Z,28.53
2024-01-19T23:43:09.862Z,29.06
2024-01-19T23:45:36.542Z,28.72
2024-01-19T23:48:07.092Z,28.99
2024-01-19T23:50:36.862Z,28.83
2024-01-19T23:53:03.616Z,28.93
2024-01-19T23:55:30.277Z,28.62
2024-01-19T23:57:56.913Z,28.85
